map of KFYG home
KFYG - Airport
Location
City:  Washington, Missouri, United States
Name:Washington Regional
ICAO:KFYG
FAA LID:FYG

Details
Type:Airport (Airfield)
Use:Public/Civil
Latitude:3835'15"N (38.587583)
Longitude:9059'38"W (-90.993805)
Datum:WGS 1984
Elevation:487 ft (148 m)
Variation:0.95W (WMM2015 magnetic declination)
-0.09 annual change
Runways:1
Longest:5002 × 75 ft (1525 × 23 m), paved

Time
Time Zone:UTC-6 (DST-5)
Local Time:

Weather
METAR:KFYG 211255Z AUTO 36008KT 10SM OVC017 M03/M05 A3048 RMK AO2

Related Locations
Nearby:
Farthest:MQZ: 10956 mi / 17632 km
Margaret River [Margaret River Airport], WA, AU

Find:

   beyond  
but within

Other Information
Maps:
NOTAMs:
Links:
Sources:

  
flag of United States
flag of Missouri
  

Sectional Chart

Flight Planning
at skyvector.com

Satellite Image

Google Maps Satellite view

 

Copyright © 2004-2018 Karl L. Swartz. All rights reserved.
The Great Circle Mapper name and logo are trademarks of the Great Circle Mapper.
All other trademarks mentioned herein belong to their respective owners.
Please see credits for attibutions and further copyright information.

  Follow gcmap on Facebook Follow gcmap on Twitter Follow gcmap on Google+ GCmap on LinkedIn

hCard Microformat

Geo Microformat